createdAt,value
2022-09-24T00:04:50.704Z,60.85
2022-09-24T00:15:18.604Z,61.03
2022-09-24T00:26:05.361Z,60.86
2022-09-24T00:36:33.626Z,60.87
2022-09-24T00:47:01.812Z,61.05
2022-09-24T00:57:30.216Z,60.93
2022-09-24T01:07:58.278Z,60.39
2022-09-24T01:18:33.911Z,60.47
2022-09-24T01:29:21.184Z,60.64
2022-09-24T01:39:51.734Z,60.83
2022-09-24T01:50:21.288Z,60.49
2022-09-24T02:00:53.189Z,60.41
2022-09-24T02:11:24.416Z,60.43
2022-09-24T02:21:53.454Z,60.13
2022-09-24T02:32:24.379Z,59.61
2022-09-24T02:42:52.293Z,59.88
2022-09-24T02:53:20.069Z,59.90
2022-09-24T03:03:48.375Z,59.77
2022-09-24T03:14:16.250Z,59.84
2022-09-24T03:24:44.194Z,60.01
2022-09-24T03:35:12.650Z,60.25
2022-09-24T03:45:39.014Z,60.56
2022-09-24T03:56:09.030Z,60.83
2022-09-24T04:06:37.005Z,60.85
2022-09-24T04:17:05.454Z,61.13
2022-09-24T04:27:33.427Z,61.23
2022-09-24T04:38:01.669Z,60.84
2022-09-24T04:48:30.197Z,60.92
2022-09-24T04:58:57.969Z,61.19
2022-09-24T05:09:25.835Z,61.29
2022-09-24T05:19:53.786Z,61.48
2022-09-24T05:30:23.219Z,61.92
2022-09-24T05:40:51.877Z,61.90
2022-09-24T05:51:20.591Z,62.50
2022-09-24T06:01:49.753Z,63.45
2022-09-24T06:12:18.302Z,64.09
2022-09-24T06:22:46.103Z,64.93
2022-09-24T06:33:15.272Z,65.40
2022-09-24T06:43:43.121Z,65.91
2022-09-24T06:54:11.088Z,66.54
2022-09-24T07:04:39.521Z,67.26
2022-09-24T07:15:07.444Z,67.71
2022-09-24T07:25:37.245Z,67.97
2022-09-24T07:36:08.381Z,68.26
2022-09-24T07:46:36.536Z,68.23
2022-09-24T07:57:04.448Z,68.33
2022-09-24T08:07:32.325Z,68.28
2022-09-24T08:18:04.825Z,68.65
2022-09-24T08:28:33.529Z,68.87
2022-09-24T08:39:01.470Z,68.86
2022-09-24T08:49:32.421Z,68.76
2022-09-24T09:00:00.325Z,68.79
2022-09-24T09:10:32.835Z,68.48
2022-09-24T09:21:15.188Z,67.95
2022-09-24T09:31:56.523Z,67.56
2022-09-24T09:42:32.325Z,67.52
2022-09-24T09:53:00.506Z,66.92
2022-09-24T10:03:32.079Z,66.96
2022-09-24T10:14:07.108Z,66.62
2022-09-24T10:24:36.857Z,66.22
2022-09-24T10:35:20.075Z,65.35
2022-09-24T10:46:14.877Z,64.47
2022-09-24T10:56:46.733Z,61.69
2022-09-24T11:07:50.429Z,60.41
2022-09-24T11:18:37.885Z,59.29
2022-09-24T11:29:33.361Z,58.23
2022-09-24T11:40:11.411Z,57.83
2022-09-24T11:50:54.452Z,57.16
2022-09-24T12:01:26.410Z,56.96
2022-09-24T12:11:59.569Z,56.05
2022-09-24T12:22:30.288Z,56.36
2022-09-24T12:33:06.158Z,56.10
2022-09-24T12:43:40.651Z,56.48
2022-09-24T12:54:27.948Z,56.73
2022-09-24T13:05:21.076Z,56.63
2022-09-24T13:15:59.422Z,55.99
2022-09-24T13:26:34.888Z,55.54
2022-09-24T13:37:11.497Z,55.62
2022-09-24T13:47:43.369Z,54.92
2022-09-24T13:58:29.256Z,54.59
2022-09-24T14:08:57.094Z,54.93
2022-09-24T14:19:25.327Z,55.44
2022-09-24T14:29:58.105Z,55.84
2022-09-24T14:40:27.616Z,56.64
2022-09-24T14:50:55.692Z,57.97
2022-09-24T15:01:25.842Z,57.91
2022-09-24T15:11:55.497Z,57.79
2022-09-24T15:22:25.580Z,58.74
2022-09-24T15:32:53.412Z,59.44
2022-09-24T15:43:23.904Z,60.07
2022-09-24T15:53:52.525Z,60.49
2022-09-24T16:04:20.784Z,61.16
2022-09-24T16:14:49.143Z,61.39
2022-09-24T16:25:17.367Z,61.52
2022-09-24T16:35:45.187Z,61.83
2022-09-24T16:46:16.496Z,62.07
2022-09-24T16:56:52.338Z,62.54
2022-09-24T17:07:20.291Z,62.77
2022-09-24T17:17:50.119Z,62.90
2022-09-24T17:28:18.418Z,63.16
2022-09-24T17:38:44.763Z,63.26
2022-09-24T17:49:13.973Z,63.09
2022-09-24T17:59:42.674Z,63.27
2022-09-24T18:10:11.399Z,63.31
2022-09-24T18:20:42.213Z,63.39
2022-09-24T18:31:11.448Z,63.44
2022-09-24T18:41:39.968Z,63.39
2022-09-24T18:52:08.134Z,63.58
2022-09-24T19:13:26.197Z,64.30
2022-09-24T19:23:56.259Z,64.26
2022-09-24T19:34:24.241Z,64.04
2022-09-24T19:44:51.849Z,64.04
2022-09-24T19:55:21.791Z,63.96
2022-09-24T20:05:52.807Z,63.81
2022-09-24T20:16:26.315Z,63.90
2022-09-24T20:27:12.110Z,63.94
2022-09-24T20:37:40.059Z,63.61
2022-09-24T20:48:08.459Z,63.87
2022-09-24T20:58:36.381Z,63.91
2022-09-24T21:09:05.475Z,63.86
2022-09-24T21:19:36.617Z,63.88
2022-09-24T21:42:02.290Z,63.45
2022-09-24T21:52:31.424Z,63.39
2022-09-24T22:03:02.744Z,63.21
2022-09-24T22:13:29.171Z,63.19
2022-09-24T22:23:57.324Z,63.14
2022-09-24T22:34:42.362Z,63.13
2022-09-24T22:45:13.257Z,63.36
2022-09-24T22:55:41.008Z,63.48
2022-09-24T23:06:11.987Z,63.72
2022-09-24T23:16:41.713Z,64.08
2022-09-24T23:27:09.754Z,64.05
2022-09-24T23:37:37.696Z,63.89
2022-09-24T23:48:06.145Z,63.68
2022-09-24T23:58:34.283Z,63.71
